Pagina principale
METAR-TAF:

METAR-TAF

Aeroporti :

Bad Vöslau, Austria

latitudine: 47-57-52N, longitudine: 016-15-34E, altezza: 233 m

Osservazione

Il bollettino è stato emesso 37 minuti fa, alle 13:00 UTC
Vento 7 kt da ovest/nord-ovest
Temperature 11°C
Umidità 87%
Pressione
pioggia debole

METAR: LOAV 191300Z 30007KT 10KM -RA FEW008ST BKN020ST 11/09

Ora: 15:37 (13:37 UTC)

Previsione

Il bollettino è stato emesso 2 ore e 12 minuti fa, alle 11:25 UTC
Previsione valida dal 19 alle 12 UTC al 19 alle 21 UTC
Vento 8 kt da nord-ovest
Visibilità: 8000 m
Nubi sparse ad un'altezza di 1500 ft
Nuvoloso ad un'altezza di 3000 ft
pioggia debole
Temporaneamente
dal 19 alle 12 UTC al 19 alle 21 UTC
Vento 15 kt da nord/nord-ovest
Visibilità: 4000 m
Poco nuvoloso ad un'altezza di 700 ft
Nuvoloso ad un'altezza di 1000 ft
pioggia

TAF: LOAV 191125Z 1912/1921 31008KT 8000 -RA SCT015 BKN030 TEMPO 1912/1921 33015KT 4000 RA FEW007 BKN010

Osservazioni e previsioni meteorologiche di più di 4000 aeroporti (messaggi METAR e TAF).

Le stazioni disponibili sono rappresentate dai dischi gialli e rossi sulla carta.

Puntare il mouse per vedere il nome della stazione.

Clicca sopra per visualizzare le osservazioni e previsioni meteorologiche.

Per cambiare la mappa : fare clic sui pulsanti verdi con una croce nera per ingrandire, il pulsante verde con un trattino per diminuire, o sulla freccia verde per le mappe adiacenti.


METAR-TAF: